Time;durP1;ratioP1;P1;durP2;ratioP2;P2;SDS_P1;SDS_P2;PMS_P1;PMS_P2;Temp;Humidity;BMP_temperature;BMP_pressure;BME280_temperature;BME280_humidity;BME280_pressure;Samples;Min_cycle;Max_cycle;Signal;HPM_P1;HPM_P2
2023/06/11 00:02:33;;;;;;;5.07;4.57;;;;;;;23.19;48.74;100216.13;10261234;28;20526;-61
2023/06/11 00:07:37;;;;;;;6.43;5.15;;;;;;;23.14;49.28;100217.75;10294096;28;20452;-60
2023/06/11 00:12:39;;;;;;;6.97;5.25;;;;;;;23.12;49.39;100216.31;10294319;28;20494;-61
2023/06/11 00:17:41;;;;;;;16.05;5.72;;;;;;;23.08;49.21;100223.44;10295028;28;20047;-61
2023/06/11 00:22:43;;;;;;;6.53;4.88;;;;;;;23.02;49.75;100227.19;10286853;28;20066;-62
2023/06/11 00:27:44;;;;;;;6.38;4.70;;;;;;;22.97;49.58;100233.47;10297075;28;20050;-61
2023/06/11 00:32:46;;;;;;;6.82;5.05;;;;;;;22.93;49.71;100233.16;10290068;28;20049;-61
2023/06/11 00:37:49;;;;;;;5.43;4.68;;;;;;;22.84;50.24;100233.88;10287718;28;20383;-60
2023/06/11 00:42:51;;;;;;;4.65;4.22;;;;;;;22.76;50.20;100238.75;10290972;28;20047;-62
2023/06/11 00:47:53;;;;;;;5.63;5.13;;;;;;;22.70;50.60;100245.28;10294458;28;20125;-60
2023/06/11 00:52:55;;;;;;;7.28;5.18;;;;;;;22.65;50.38;100247.97;10293085;28;20046;-62
2023/06/11 00:57:56;;;;;;;6.68;5.43;;;;;;;22.57;50.37;100243.78;10291943;28;20058;-61
2023/06/11 01:03:08;;;;;;;7.47;5.40;;;;;;;22.59;50.45;100243.53;10292538;28;20081;-62
2023/06/11 01:08:12;;;;;;;5.32;4.45;;;;;;;22.58;50.76;100234.47;10294700;28;20106;-62
2023/06/11 01:13:14;;;;;;;6.95;4.93;;;;;;;22.61;50.75;100243.25;10283673;28;20051;-61
2023/06/11 01:18:22;;;;;;;6.03;5.43;;;;;;;22.56;50.93;100231.16;10293350;28;20541;-61
2023/06/11 01:23:50;;;;;;;9.25;5.07;;;;;;;22.49;50.85;100237.94;10292897;28;20039;-62
2023/06/11 01:28:57;;;;;;;5.47;4.93;;;;;;;22.46;51.36;100242.00;10292495;28;20051;-62
2023/06/11 01:33:58;;;;;;;5.40;4.90;;;;;;;22.34;51.17;100239.44;10282521;28;20054;-61
2023/06/11 01:39:01;;;;;;;5.97;4.80;;;;;;;22.26;51.40;100244.53;10289074;28;20046;-61
2023/06/11 01:44:02;;;;;;;7.25;5.30;;;;;;;22.22;51.24;100249.66;10295093;28;20046;-59
2023/06/11 01:49:04;;;;;;;6.63;4.82;;;;;;;22.21;51.33;100245.25;10282976;28;20053;-59
2023/06/11 01:54:06;;;;;;;7.75;5.40;;;;;;;22.17;51.41;100246.84;10282554;28;20051;-59
2023/06/11 01:59:07;;;;;;;6.80;5.32;;;;;;;22.15;51.44;100244.38;10279441;28;20042;-58
2023/06/11 02:04:08;;;;;;;5.40;4.90;;;;;;;22.13;51.42;100238.31;10249411;28;20371;-59
2023/06/11 02:09:10;;;;;;;7.10;5.03;;;;;;;22.05;51.68;100243.44;10288895;28;20133;-59
2023/06/11 02:14:11;;;;;;;5.13;4.63;;;;;;;21.98;51.64;100244.44;10282452;28;20046;-60
2023/06/11 02:19:13;;;;;;;6.70;5.07;;;;;;;21.87;52.18;100242.66;10282734;28;20390;-59
2023/06/11 02:24:15;;;;;;;7.35;5.22;;;;;;;21.84;52.38;100240.44;10288828;28;20050;-59
2023/06/11 02:29:17;;;;;;;5.63;5.03;;;;;;;21.80;52.56;100236.56;10278966;28;20125;-58
2023/06/11 02:34:18;;;;;;;5.30;4.90;;;;;;;21.77;52.52;100243.34;10292437;28;20049;-58
2023/06/11 02:39:20;;;;;;;6.53;4.72;;;;;;;21.74;52.22;100245.75;10288208;28;20042;-58
2023/06/11 02:44:23;;;;;;;5.30;4.82;;;;;;;21.67;52.79;100242.38;10284066;28;20307;-58
2023/06/11 02:49:24;;;;;;;5.82;5.28;;;;;;;21.66;52.49;100244.28;10279592;28;20065;-59
2023/06/11 02:54:26;;;;;;;6.22;5.50;;;;;;;21.64;52.75;100249.16;10282233;28;20065;-58
2023/06/11 02:59:27;;;;;;;6.85;5.68;;;;;;;21.61;53.02;100255.16;10284925;28;20038;-59
2023/06/11 03:04:29;;;;;;;8.32;5.22;;;;;;;21.54;53.30;100258.09;10285468;28;20094;-60
2023/06/11 03:09:30;;;;;;;8.60;5.85;;;;;;;21.54;53.42;100259.97;10288961;28;20046;-59
2023/06/11 03:14:32;;;;;;;5.70;5.10;;;;;;;21.48;53.05;100263.72;10292472;28;20043;-62
2023/06/11 03:19:33;;;;;;;6.88;5.38;;;;;;;21.41;53.30;100271.25;10279490;28;20047;-62
2023/06/11 03:24:35;;;;;;;5.68;5.13;;;;;;;21.39;53.56;100280.50;10277154;28;20047;-64
2023/06/11 03:29:36;;;;;;;5.82;5.20;;;;;;;21.38;53.38;100272.56;10290923;28;20054;-61
2023/06/11 03:34:38;;;;;;;6.88;5.65;;;;;;;21.35;53.19;100270.34;10296959;28;20507;-62
2023/06/11 03:39:39;;;;;;;5.68;4.90;;;;;;;21.36;53.32;100275.53;10294709;28;20042;-61
2023/06/11 03:44:40;;;;;;;7.53;5.18;;;;;;;21.41;53.33;100277.53;10293714;28;20046;-64
2023/06/11 03:49:43;;;;;;;9.02;5.75;;;;;;;21.41;53.37;100277.53;10299124;28;20047;-61
2023/06/11 03:54:44;;;;;;;6.47;4.88;;;;;;;21.41;53.29;100282.19;10292556;28;20643;-62
2023/06/11 03:59:46;;;;;;;7.80;5.55;;;;;;;21.46;53.29;100288.56;10299523;28;20486;-64
2023/06/11 04:04:47;;;;;;;5.60;5.03;;;;;;;21.49;53.21;100290.81;10291647;28;20121;-60
2023/06/11 04:09:49;;;;;;;9.27;5.60;;;;;;;21.51;53.00;100287.84;10277929;28;20065;-61
2023/06/11 04:14:50;;;;;;;7.35;5.47;;;;;;;21.47;53.16;100287.50;10291935;28;20045;-63
2023/06/11 04:19:52;;;;;;;5.30;4.80;;;;;;;21.51;53.14;100294.13;10286062;28;20057;-61
2023/06/11 04:24:53;;;;;;;6.82;4.70;;;;;;;21.56;53.13;100294.22;10292010;28;20047;-60
2023/06/11 04:29:56;;;;;;;5.97;5.03;;;;;;;21.60;53.50;100300.00;10294843;28;20047;-64
2023/06/11 04:34:57;;;;;;;5.38;4.88;;;;;;;21.65;53.17;100304.72;10289716;28;20050;-61
2023/06/11 04:40:05;;;;;;;7.32;5.20;;;;;;;21.72;53.13;100291.69;10276763;28;20671;-62
2023/06/11 04:45:10;;;;;;;5.43;4.70;;;;;;;21.82;52.73;100294.59;10288618;28;20482;-61
2023/06/11 04:50:12;;;;;;;5.72;4.95;;;;;;;21.93;52.54;100296.38;10297597;28;20077;-63
2023/06/11 04:55:13;;;;;;;6.93;4.53;;;;;;;22.05;52.76;100290.78;10288997;28;20046;-62
2023/06/11 05:00:15;;;;;;;6.40;5.03;;;;;;;22.09;52.99;100286.47;10293065;28;20489;-64
2023/06/11 05:05:17;;;;;;;8.38;5.18;;;;;;;22.21;52.63;100291.81;10286347;28;20050;-62
2023/06/11 05:10:18;;;;;;;8.32;5.10;;;;;;;22.32;53.14;100290.88;10290424;28;20093;-62
2023/06/11 05:15:20;;;;;;;5.57;4.88;;;;;;;22.43;53.32;100297.31;10287408;28;20566;-60
2023/06/11 05:20:25;;;;;;;6.43;4.85;;;;;;;22.54;52.93;100298.25;10291309;28;20050;-64
2023/06/11 05:25:28;;;;;;;5.30;4.80;;;;;;;22.67;52.61;100295.13;10291505;28;20418;-60
2023/06/11 05:30:36;;;;;;;10.45;5.43;;;;;;;22.71;52.75;100289.94;10272983;28;20042;-61
2023/06/11 05:35:38;;;;;;;5.32;4.70;;;;;;;22.81;52.33;100301.03;10283177;28;20059;-62
2023/06/11 05:40:39;;;;;;;4.55;3.88;;;;;;;22.92;52.47;100307.44;10292204;28;20042;-60
2023/06/11 05:45:48;;;;;;;5.28;4.03;;;;;;;23.05;52.15;100307.03;10291214;28;20046;-61
2023/06/11 05:50:51;;;;;;;5.60;4.70;;;;;;;23.19;51.66;100315.66;10288808;28;20126;-62
2023/06/11 05:55:52;;;;;;;8.77;4.43;;;;;;;23.25;51.02;100327.53;10289018;28;20054;-61
2023/06/11 06:00:56;;;;;;;5.43;4.07;;;;;;;23.40;50.89;100319.44;10288767;28;20050;-62
2023/06/11 06:06:01;;;;;;;6.05;4.25;;;;;;;23.59;50.32;100322.56;10290178;28;20513;-61
2023/06/11 06:11:02;;;;;;;4.85;4.43;;;;;;;23.77;49.73;100326.81;10283287;28;20103;-60
2023/06/11 06:16:04;;;;;;;5.45;4.70;;;;;;;23.93;49.23;100325.88;10288682;28;20094;-60
2023/06/11 06:21:05;;;;;;;4.88;4.25;;;;;;;24.08;48.70;100329.78;10281117;28;20047;-62
2023/06/11 06:26:07;;;;;;;5.22;4.60;;;;;;;24.26;48.22;100337.56;10290692;28;20046;-60
2023/06/11 06:31:12;;;;;;;6.03;4.20;;;;;;;24.41;48.03;100335.97;10289046;28;20521;-61
2023/06/11 06:36:14;;;;;;;4.53;4.13;;;;;;;24.60;47.57;100344.59;10273021;28;20055;-61
2023/06/11 06:41:15;;;;;;;4.82;4.10;;;;;;;24.72;47.28;100339.69;10291419;28;20055;-60
2023/06/11 06:46:17;;;;;;;4.43;4.03;;;;;;;24.84;46.89;100342.19;10289609;28;20047;-60
2023/06/11 06:51:20;;;;;;;5.53;4.30;;;;;;;25.00;46.29;100349.41;10284709;28;20055;-59
2023/06/11 06:56:22;;;;;;;5.47;4.43;;;;;;;25.13;46.25;100346.09;10286282;28;20796;-60
2023/06/11 07:01:24;;;;;;;7.22;4.15;;;;;;;25.27;45.89;100348.34;10288030;28;20057;-61
2023/06/11 07:06:25;;;;;;;4.82;4.13;;;;;;;25.37;46.03;100353.03;10286825;28;20038;-61
2023/06/11 07:11:27;;;;;;;4.53;3.70;;;;;;;25.53;45.82;100355.53;10290337;28;20491;-60
2023/06/11 07:16:28;;;;;;;4.13;3.72;;;;;;;25.70;44.99;100355.22;10257662;28;20046;-59
2023/06/11 07:21:30;;;;;;;4.18;3.78;;;;;;;25.87;44.61;100359.59;10283652;28;20061;-60
2023/06/11 07:26:32;;;;;;;5.15;4.30;;;;;;;25.87;44.73;100362.34;10279613;28;20121;-61
2023/06/11 07:31:34;;;;;;;3.97;3.67;;;;;;;26.00;44.17;100349.97;10273607;28;20054;-61
2023/06/11 07:36:35;;;;;;;4.88;3.80;;;;;;;26.20;44.05;100362.88;10271281;28;20042;-60
2023/06/11 07:41:37;;;;;;;5.22;4.28;;;;;;;26.39;43.38;100360.34;10285898;28;20053;-60
2023/06/11 07:46:39;;;;;;;6.30;4.28;;;;;;;26.52;43.01;100352.28;10280946;28;20481;-61
2023/06/11 07:51:42;;;;;;;6.18;4.28;;;;;;;26.63;43.03;100366.06;10273317;28;20108;-60
2023/06/11 07:56:46;;;;;;;5.07;3.78;;;;;;;26.71;42.67;100359.94;10284976;28;20395;-64
2023/06/11 08:01:48;;;;;;;5.45;4.13;;;;;;;26.96;42.40;100358.16;10273080;28;20035;-64
2023/06/11 08:06:49;;;;;;;5.80;4.05;;;;;;;27.10;42.08;100348.94;10279766;28;20066;-64
2023/06/11 08:11:51;;;;;;;4.25;3.85;;;;;;;27.27;41.01;100358.78;10278736;28;20054;-65
2023/06/11 08:16:52;;;;;;;3.80;3.30;;;;;;;27.46;40.85;100356.97;10263847;28;20530;-64
2023/06/11 08:21:54;;;;;;;5.43;3.80;;;;;;;27.56;40.54;100345.03;10291075;28;20055;-65
2023/06/11 08:26:56;;;;;;;6.70;3.45;;;;;;;27.79;40.22;100354.50;10289618;28;20051;-64
2023/06/11 08:31:57;;;;;;;6.82;3.83;;;;;;;27.84;39.87;100345.31;10294039;28;20043;-64
2023/06/11 08:37:00;;;;;;;4.00;3.58;;;;;;;27.94;40.02;100336.94;10288062;28;20094;-65
2023/06/11 08:42:01;;;;;;;6.40;4.10;;;;;;;28.18;39.77;100328.69;10291321;28;20077;-64
2023/06/11 08:47:04;;;;;;;3.90;3.20;;;;;;;28.38;38.87;100322.06;10300248;28;20054;-65
2023/06/11 08:52:05;;;;;;;5.63;4.60;;;;;;;28.57;38.26;100330.41;10293913;28;20051;-65
2023/06/11 08:57:08;;;;;;;5.72;4.03;;;;;;;28.72;38.18;100334.13;10288352;28;20046;-64
2023/06/11 09:02:10;;;;;;;5.10;3.67;;;;;;;28.87;38.33;100328.34;10275753;28;20066;-65
2023/06/11 09:07:23;;;;;;;7.82;3.55;;;;;;;29.03;37.14;100317.88;10296646;28;20104;-65
2023/06/11 09:12:25;;;;;;;4.80;3.30;;;;;;;29.12;37.44;100315.28;10295383;28;20042;-65
2023/06/11 09:17:37;;;;;;;5.72;3.60;;;;;;;29.18;36.64;100308.53;10294410;28;20074;-64
2023/06/11 09:22:41;;;;;;;3.90;3.22;;;;;;;29.36;35.68;100317.94;10287519;28;20053;-64
2023/06/11 09:27:45;;;;;;;3.97;2.95;;;;;;;29.56;35.13;100314.81;10288616;28;20494;-65
2023/06/11 09:32:48;;;;;;;5.05;3.08;;;;;;;29.77;33.54;100308.94;10293002;28;20065;-65
2023/06/11 09:37:52;;;;;;;5.05;3.25;;;;;;;29.93;32.82;100307.50;10282737;28;20394;-65
2023/06/11 09:42:55;;;;;;;3.83;2.80;;;;;;;30.00;31.71;100312.66;10297756;28;20052;-64
2023/06/11 09:47:58;;;;;;;6.28;3.42;;;;;;;30.10;31.78;100320.75;10294177;28;20074;-63
2023/06/11 09:53:04;;;;;;;7.97;2.50;;;;;;;30.18;30.83;100328.34;10282376;28;20046;-66
2023/06/11 09:58:06;;;;;;;7.40;2.83;;;;;;;30.29;30.95;100323.41;10285153;28;20622;-65
2023/06/11 10:03:08;;;;;;;5.50;2.75;;;;;;;30.41;30.40;100317.38;10291031;28;20054;-66
2023/06/11 10:08:24;;;;;;;4.88;3.03;;;;;;;30.69;31.08;100320.94;10296622;28;20057;-65
2023/06/11 10:13:28;;;;;;;5.53;2.95;;;;;;;30.84;29.93;100315.00;10294677;28;20043;-65
2023/06/11 10:18:30;;;;;;;6.60;2.53;;;;;;;31.07;28.87;100315.06;10294670;28;20057;-65
2023/06/11 10:23:36;;;;;;;2.63;2.33;;;;;;;31.19;28.42;100329.22;10287578;28;20055;-67
2023/06/11 10:28:48;;;;;;;4.00;2.47;;;;;;;31.36;28.54;100319.34;10269108;28;20051;-63
2023/06/11 10:33:49;;;;;;;4.05;3.00;;;;;;;31.53;28.01;100313.13;10286445;28;20057;-64
2023/06/11 10:39:12;;;;;;;4.88;2.88;;;;;;;31.62;28.08;100305.66;10288379;28;20121;-63
2023/06/11 10:44:14;;;;;;;6.38;2.55;;;;;;;31.76;27.36;100309.16;10272107;28;20050;-67
2023/06/11 10:49:17;;;;;;;3.00;2.28;;;;;;;31.88;26.59;100311.34;10274349;28;20050;-66
2023/06/11 10:54:26;;;;;;;3.15;2.22;;;;;;;32.04;26.47;100319.28;10282808;28;20051;-66
2023/06/11 10:59:28;;;;;;;2.55;1.77;;;;;;;32.20;25.92;100304.59;10287971;28;20043;-65
2023/06/11 11:04:30;;;;;;;3.88;2.05;;;;;;;32.30;25.52;100311.03;10288755;28;20065;-65
2023/06/11 11:09:32;;;;;;;3.15;2.25;;;;;;;32.33;25.39;100304.84;10266861;28;20039;-63
2023/06/11 11:14:33;;;;;;;3.90;2.10;;;;;;;32.45;24.80;100298.63;10279405;28;20046;-65
2023/06/11 11:19:36;;;;;;;5.32;2.40;;;;;;;32.64;24.61;100296.38;10286060;28;20498;-68
2023/06/11 11:24:38;;;;;;;3.80;2.17;;;;;;;32.69;24.70;100289.84;10292731;28;20129;-65
2023/06/11 11:29:41;;;;;;;3.58;2.17;;;;;;;32.78;24.42;100287.88;10287463;28;20129;-63
2023/06/11 11:34:44;;;;;;;7.80;2.35;;;;;;;32.95;24.09;100287.88;10277511;28;20053;-72
2023/06/11 11:39:46;;;;;;;2.47;1.88;;;;;;;32.88;23.74;100284.78;10290773;28;20043;-63
2023/06/11 11:44:49;;;;;;;3.72;2.05;;;;;;;32.98;23.25;100278.06;10288357;28;20050;-67
2023/06/11 11:49:55;;;;;;;3.35;1.95;;;;;;;33.15;24.01;100275.25;10283523;28;20458;-65
2023/06/11 11:54:58;;;;;;;3.90;2.42;;;;;;;33.34;23.46;100269.31;10284137;28;20564;-65
2023/06/11 11:59:59;;;;;;;4.47;1.70;;;;;;;33.54;23.13;100275.34;10296510;28;20409;-66
2023/06/11 12:05:01;;;;;;;3.75;2.20;;;;;;;33.69;22.33;100269.25;10290231;28;20049;-67
2023/06/11 12:10:03;;;;;;;2.90;1.95;;;;;;;33.73;22.11;100266.59;10293659;28;20080;-65
2023/06/11 12:15:05;;;;;;;5.00;1.77;;;;;;;33.99;21.81;100255.34;10294613;28;20401;-65
2023/06/11 12:20:07;;;;;;;4.70;2.10;;;;;;;34.11;21.42;100257.41;10307777;28;20061;-65
2023/06/11 12:25:09;;;;;;;2.40;2.00;;;;;;;35.65;20.12;100251.97;10322448;28;20069;-64
2023/06/11 12:30:11;;;;;;;6.60;3.10;;;;;;;37.43;18.43;100243.72;10546012;23;20051;-65
2023/06/11 12:35:14;;;;;;;8.98;3.88;;;;;;;38.67;17.58;100244.31;10430912;23;20067;-63
2023/06/11 12:40:15;;;;;;;3.47;1.70;;;;;;;39.50;16.61;100229.03;10396438;23;20078;-62
2023/06/11 12:45:17;;;;;;;2.30;1.50;;;;;;;39.40;16.56;100233.25;10316193;28;20117;-63
2023/06/11 12:50:18;;;;;;;5.13;1.90;;;;;;;39.13;17.01;100226.75;10315048;28;20061;-64
2023/06/11 12:55:25;;;;;;;4.45;1.80;;;;;;;38.78;16.87;100227.66;10310421;28;20075;-64
2023/06/11 13:00:29;;;;;;;3.67;1.55;;;;;;;38.60;17.07;100216.03;10304690;28;20042;-61
2023/06/11 13:05:31;;;;;;;3.63;1.63;;;;;;;38.33;16.87;100211.41;10317175;28;20110;-63
2023/06/11 13:10:32;;;;;;;13.55;3.20;;;;;;;38.79;16.05;100208.81;10308025;28;20106;-62
2023/06/11 13:15:34;;;;;;;5.68;2.03;;;;;;;38.83;17.12;100212.50;10313898;28;20049;-61
2023/06/11 13:20:35;;;;;;;4.38;2.20;;;;;;;38.95;16.53;100203.88;10308876;28;20079;-63
2023/06/11 13:25:37;;;;;;;4.40;2.05;;;;;;;38.58;17.20;100206.38;10307777;28;20051;-64
2023/06/11 13:30:38;;;;;;;4.20;1.88;;;;;;;39.17;16.40;100207.94;10303775;28;20053;-61
2023/06/11 13:35:40;;;;;;;1.67;1.58;;;;;;;39.70;15.66;100198.00;10298038;28;20047;-63
2023/06/11 13:40:41;;;;;;;2.70;1.40;;;;;;;41.73;13.84;100184.72;10664992;23;20491;-64
2023/06/11 13:45:44;;;;;;;3.22;2.00;;;;;;;42.67;13.60;100180.34;10319786;28;20088;-67
2023/06/11 13:50:47;;;;;;;5.60;2.28;;;;;;;43.47;12.88;100176.47;10314043;28;20053;-62
2023/06/11 13:55:49;;;;;;;1.50;1.25;;;;;;;43.81;12.73;100184.53;10319684;28;20054;-66
2023/06/11 14:00:51;;;;;;;1.85;1.30;;;;;;;43.92;12.72;100176.00;10308027;28;20057;-63
2023/06/11 14:05:55;;;;;;;2.42;1.33;;;;;;;43.95;12.58;100172.34;10302099;28;20145;-63
2023/06/11 14:10:56;;;;;;;3.75;1.60;;;;;;;42.68;12.93;100165.03;10314812;28;20062;-64
2023/06/11 14:15:58;;;;;;;2.45;1.30;;;;;;;41.51;13.14;100158.31;10312799;28;20039;-67
2023/06/11 14:20:59;;;;;;;2.17;1.30;;;;;;;40.72;13.24;100157.56;10304277;28;20509;-71
2023/06/11 14:26:01;;;;;;;2.72;1.67;;;;;;;40.75;13.24;100158.81;10296992;28;20421;-66
2023/06/11 14:31:04;;;;;;;1.40;1.30;;;;;;;41.53;12.82;100146.63;10302978;28;20050;-66
2023/06/11 14:36:07;;;;;;;5.03;1.17;;;;;;;42.11;12.13;100145.81;10303077;28;20078;-66
2023/06/11 14:41:08;;;;;;;2.00;1.42;;;;;;;42.18;11.65;100131.72;10303217;28;20039;-66
2023/06/11 14:46:10;;;;;;;2.83;1.40;;;;;;;41.62;12.52;100135.84;10300341;28;20399;-66
2023/06/11 14:51:11;;;;;;;3.70;1.52;;;;;;;41.15;13.04;100137.44;10308436;28;20567;-66
2023/06/11 14:56:13;;;;;;;3.25;1.10;;;;;;;40.84;12.54;100128.28;10309455;28;20037;-65
2023/06/11 15:01:14;;;;;;;2.22;1.42;;;;;;;40.77;12.36;100117.75;10316240;28;20054;-65
2023/06/11 15:06:16;;;;;;;1.38;1.10;;;;;;;41.04;12.59;100111.97;10318392;28;20042;-64
2023/06/11 15:11:17;;;;;;;3.15;1.42;;;;;;;41.10;12.31;100107.59;10315606;28;20040;-64
2023/06/11 15:16:18;;;;;;;2.10;1.08;;;;;;;41.09;12.20;100099.50;10306991;28;20050;-64
2023/06/11 15:21:20;;;;;;;3.00;1.10;;;;;;;40.88;12.48;100102.94;10309422;28;20064;-65
2023/06/11 15:26:21;;;;;;;2.58;1.17;;;;;;;40.83;11.84;100102.09;10302928;28;20057;-64
2023/06/11 15:31:23;;;;;;;3.25;1.05;;;;;;;40.71;12.17;100096.72;10321145;28;20603;-64
2023/06/11 15:36:24;;;;;;;2.85;1.20;;;;;;;40.86;11.92;100086.44;10315153;28;20117;-67
2023/06/11 15:41:27;;;;;;;1.50;1.35;;;;;;;40.89;11.95;100087.66;10320379;28;20046;-64
2023/06/11 15:46:28;;;;;;;1.80;1.10;;;;;;;41.10;11.87;100093.47;10316292;28;20524;-64
2023/06/11 15:51:29;;;;;;;2.47;0.90;;;;;;;41.13;11.74;100084.22;10313051;28;20046;-65
2023/06/11 15:56:33;;;;;;;0.93;0.80;;;;;;;41.14;11.67;100085.84;10312470;28;20132;-66
2023/06/11 16:01:34;;;;;;;3.97;1.27;;;;;;;41.28;11.34;100085.19;10307570;28;20045;-64
2023/06/11 16:06:36;;;;;;;3.08;1.42;;;;;;;41.44;11.93;100076.41;10304834;28;20645;-64
2023/06/11 16:11:37;;;;;;;4.47;1.20;;;;;;;41.45;11.32;100082.88;10306243;28;20042;-64
2023/06/11 16:16:39;;;;;;;1.73;1.17;;;;;;;41.50;11.63;100080.47;10307164;28;20494;-66
2023/06/11 16:21:40;;;;;;;2.10;1.38;;;;;;;41.70;10.89;100083.84;10306519;28;20501;-65
2023/06/11 16:26:42;;;;;;;1.13;1.02;;;;;;;41.49;11.53;100078.84;10304731;28;20053;-65
2023/06/11 16:31:44;;;;;;;1.35;1.05;;;;;;;41.52;10.93;100075.25;10306275;28;20121;-65
2023/06/11 16:36:46;;;;;;;1.50;0.88;;;;;;;41.56;11.11;100072.47;10306639;28;20054;-65
2023/06/11 16:41:47;;;;;;;1.80;1.10;;;;;;;41.60;10.70;100081.75;10303739;28;20049;-64
2023/06/11 16:46:50;;;;;;;3.80;1.13;;;;;;;41.76;10.79;100067.34;10303516;28;20046;-65
2023/06/11 16:51:51;;;;;;;1.90;1.02;;;;;;;41.73;11.10;100070.94;10316362;28;20050;-65
2023/06/11 16:56:53;;;;;;;1.40;1.13;;;;;;;41.61;11.02;100064.47;10310188;28;20051;-64
2023/06/11 17:01:54;;;;;;;2.75;1.40;;;;;;;41.43;11.57;100071.97;10337101;28;20030;-64
2023/06/11 17:06:56;;;;;;;1.50;1.15;;;;;;;41.43;11.17;100066.31;10329947;28;20055;-64
2023/06/11 17:11:57;;;;;;;1.25;1.10;;;;;;;41.29;11.57;100064.22;10326360;28;20047;-61
2023/06/11 17:16:58;;;;;;;2.72;1.00;;;;;;;41.10;12.11;100062.44;10342852;28;20034;-64
2023/06/11 17:22:00;;;;;;;1.30;1.17;;;;;;;40.67;12.09;100066.88;10345424;28;20030;-63
2023/06/11 17:27:02;;;;;;;2.72;1.10;;;;;;;40.69;12.13;100058.84;10347090;28;20050;-64
2023/06/11 17:32:03;;;;;;;5.30;1.40;;;;;;;40.60;12.48;100061.97;10352857;28;20062;-62
2023/06/11 17:37:05;;;;;;;1.55;1.30;;;;;;;40.41;12.62;100058.19;10350681;28;20069;-62
2023/06/11 17:42:06;;;;;;;2.92;1.45;;;;;;;40.10;12.46;100061.44;10328252;28;20066;-61
2023/06/11 17:47:08;;;;;;;3.45;1.10;;;;;;;39.80;12.67;100054.59;10325730;28;20046;-62
2023/06/11 17:52:10;;;;;;;2.75;1.40;;;;;;;39.47;12.65;100047.69;10323242;28;20061;-63
2023/06/11 17:57:12;;;;;;;2.00;1.80;;;;;;;39.27;13.05;100060.25;10312360;28;20062;-63
2023/06/11 18:02:13;;;;;;;3.30;1.13;;;;;;;39.05;13.29;100061.91;10331496;28;20049;-63
2023/06/11 18:07:14;;;;;;;5.80;1.20;;;;;;;38.78;14.12;100059.00;10319591;28;20099;-61
2023/06/11 18:12:16;;;;;;;3.30;0.98;;;;;;;38.38;13.91;100060.28;10299554;28;20056;-62
2023/06/11 18:17:19;;;;;;;4.13;1.40;;;;;;;37.54;14.84;100058.84;10311508;28;20482;-62
2023/06/11 18:22:24;;;;;;;5.60;1.77;;;;;;;36.40;15.67;100063.19;10315586;28;20037;-63
2023/06/11 18:27:25;;;;;;;4.68;2.58;;;;;;;35.39;16.42;100069.72;10298956;28;20629;-63
2023/06/11 18:32:26;;;;;;;5.80;2.03;;;;;;;34.48;17.50;100068.66;10295923;28;20043;-62
2023/06/11 18:37:28;;;;;;;1.77;1.27;;;;;;;33.62;18.23;100065.41;10296426;28;20108;-61
2023/06/11 18:42:29;;;;;;;2.63;1.30;;;;;;;32.73;18.64;100073.66;10311749;28;20058;-62
2023/06/11 18:47:31;;;;;;;3.20;1.55;;;;;;;32.09;19.03;100071.59;10310171;28;20050;-63
2023/06/11 18:52:32;;;;;;;3.33;1.48;;;;;;;31.36;20.00;100080.44;10284284;28;20081;-62
2023/06/11 18:57:34;;;;;;;3.25;1.88;;;;;;;30.78;20.69;100080.34;10304891;28;20042;-64
2023/06/11 19:02:35;;;;;;;4.22;1.88;;;;;;;30.30;21.03;100086.53;10293113;28;20051;-62
2023/06/11 19:07:39;;;;;;;3.95;2.00;;;;;;;29.83;21.24;100083.22;10303794;28;20056;-63
2023/06/11 19:12:41;;;;;;;1.95;1.42;;;;;;;29.39;21.96;100085.50;10292761;28;20046;-63
2023/06/11 19:17:43;;;;;;;5.40;1.80;;;;;;;29.01;22.71;100093.97;10306590;28;20454;-61
2023/06/11 19:22:44;;;;;;;6.25;2.03;;;;;;;28.67;23.29;100099.84;10307830;28;21342;-62
2023/06/11 19:27:46;;;;;;;4.72;2.03;;;;;;;28.31;23.54;100110.66;10275493;28;20039;-64
2023/06/11 19:32:47;;;;;;;2.53;1.88;;;;;;;28.05;24.03;100116.56;10285257;28;20061;-64
2023/06/11 19:37:49;;;;;;;4.10;2.00;;;;;;;27.85;24.36;100121.25;10304546;28;20678;-62
2023/06/11 19:42:50;;;;;;;5.05;2.65;;;;;;;27.61;24.60;100120.47;10301221;28;20046;-65
2023/06/11 19:47:52;;;;;;;4.45;1.95;;;;;;;27.39;25.07;100121.00;10301936;28;20049;-64
2023/06/11 19:52:54;;;;;;;3.53;1.80;;;;;;;27.19;25.65;100122.00;10307153;28;20138;-63
2023/06/11 19:57:56;;;;;;;3.17;2.45;;;;;;;26.97;25.55;100139.06;10303645;28;20047;-64
2023/06/11 20:02:58;;;;;;;3.72;2.10;;;;;;;26.76;26.00;100142.03;10292269;28;20047;-64
2023/06/11 20:08:03;;;;;;;3.05;2.00;;;;;;;26.58;26.27;100151.84;10299251;28;20110;-63
2023/06/11 20:13:04;;;;;;;4.18;2.22;;;;;;;26.42;26.11;100153.00;10297844;28;20047;-62
2023/06/11 20:18:06;;;;;;;3.25;2.58;;;;;;;26.31;26.58;100155.03;10300178;28;20700;-64
2023/06/11 20:23:07;;;;;;;6.38;2.08;;;;;;;26.10;26.79;100160.66;10307848;28;20038;-63
2023/06/11 20:28:09;;;;;;;7.95;2.65;;;;;;;26.01;26.67;100167.06;10317040;28;20042;-68
2023/06/11 20:33:10;;;;;;;4.72;2.47;;;;;;;25.90;26.95;100169.84;10317693;28;20054;-63
2023/06/11 20:38:12;;;;;;;5.97;2.55;;;;;;;25.77;26.67;100169.59;10308218;28;20084;-64
2023/06/11 20:43:13;;;;;;;4.32;2.47;;;;;;;25.54;27.36;100169.16;10304421;28;20083;-65
2023/06/11 20:48:14;;;;;;;3.20;2.40;;;;;;;25.41;27.43;100170.53;10304894;28;20053;-64
2023/06/11 20:53:16;;;;;;;3.65;2.38;;;;;;;25.28;27.53;100171.16;10307923;28;20062;-64
2023/06/11 20:58:33;;;;;;;7.15;2.63;;;;;;;25.07;27.47;100160.13;10308740;28;20757;-61
2023/06/11 21:03:35;;;;;;;3.33;1.88;;;;;;;24.94;27.83;100158.78;10312915;28;20050;-63
2023/06/11 21:08:36;;;;;;;3.47;2.22;;;;;;;24.83;27.67;100159.88;10305813;28;20074;-62
2023/06/11 21:13:38;;;;;;;3.10;2.35;;;;;;;24.70;28.22;100154.94;10313891;28;20057;-62
2023/06/11 21:18:40;;;;;;;5.30;2.70;;;;;;;24.62;28.67;100156.31;10303960;28;20035;-61
2023/06/11 21:23:41;;;;;;;3.65;2.15;;;;;;;24.53;28.81;100150.53;10304160;28;20065;-62
2023/06/11 21:28:42;;;;;;;3.50;2.22;;;;;;;24.41;29.58;100154.59;10303856;28;20042;-61
2023/06/11 21:33:44;;;;;;;5.45;2.58;;;;;;;24.28;30.02;100165.03;10303075;28;20245;-61
2023/06/11 21:38:45;;;;;;;6.75;2.67;;;;;;;24.17;29.73;100160.63;10303258;28;20065;-61
2023/06/11 21:43:47;;;;;;;5.00;2.80;;;;;;;24.05;30.13;100163.63;10297032;28;20042;-61
2023/06/11 21:48:49;;;;;;;4.95;2.25;;;;;;;23.98;30.47;100159.47;10304123;28;20414;-61
2023/06/11 21:53:51;;;;;;;5.00;2.67;;;;;;;23.87;30.90;100156.69;10302601;28;20077;-63
2023/06/11 21:58:52;;;;;;;6.10;2.40;;;;;;;23.79;31.45;100151.72;10308775;28;20061;-62
2023/06/11 22:03:53;;;;;;;3.38;2.22;;;;;;;23.66;31.90;100161.25;10308798;28;20136;-63
2023/06/11 22:08:56;;;;;;;4.80;2.63;;;;;;;23.56;32.03;100155.72;10298061;28;20051;-62
2023/06/11 22:13:57;;;;;;;9.23;2.83;;;;;;;23.49;32.68;100169.66;10299625;28;20050;-62
2023/06/11 22:19:03;;;;;;;6.07;2.70;;;;;;;23.41;33.13;100164.69;10304163;28;20073;-62
2023/06/11 22:24:05;;;;;;;3.72;2.15;;;;;;;23.29;33.26;100164.06;10301475;28;20052;-62
2023/06/11 22:29:07;;;;;;;4.30;2.17;;;;;;;23.22;33.92;100157.97;10299850;28;20124;-62
2023/06/11 22:34:08;;;;;;;3.60;2.97;;;;;;;23.14;34.36;100165.63;10298749;28;20064;-61
2023/06/11 22:39:10;;;;;;;3.92;2.85;;;;;;;23.09;34.66;100149.13;10298894;28;20402;-61
2023/06/11 22:44:11;;;;;;;2.67;2.35;;;;;;;22.99;34.72;100160.00;10302267;28;20058;-61
2023/06/11 22:49:13;;;;;;;6.70;2.53;;;;;;;22.93;35.34;100156.41;10296123;28;20050;-61
2023/06/11 22:54:15;;;;;;;9.45;2.88;;;;;;;22.89;35.81;100159.94;10299477;28;20057;-62
2023/06/11 22:59:17;;;;;;;6.15;2.67;;;;;;;22.80;36.29;100162.31;10304974;28;20105;-61
2023/06/11 23:04:20;;;;;;;8.60;2.97;;;;;;;22.70;36.60;100168.53;10298991;28;20516;-61
2023/06/11 23:09:22;;;;;;;4.70;2.75;;;;;;;22.64;36.70;100166.84;10285139;28;20042;-62